createdAt,value
2019-01-20T00:02:01.628Z,79.83
2019-01-20T00:04:29.336Z,79.83
2019-01-20T00:09:43.391Z,79.84
2019-01-20T00:14:48.782Z,79.94
2019-01-20T00:17:16.738Z,79.94
2019-01-20T00:19:44.483Z,79.77
2019-01-20T00:22:12.543Z,79.77
2019-01-20T00:24:59.135Z,80.00
2019-01-20T00:27:26.763Z,79.91
2019-01-20T00:29:54.458Z,79.73
2019-01-20T00:32:22.181Z,79.86
2019-01-20T00:34:50.289Z,79.86
2019-01-20T00:37:18.153Z,80.16
2019-01-20T00:39:47.767Z,80.15
2019-01-20T00:42:17.082Z,80.12
2019-01-20T00:44:44.773Z,80.12
2019-01-20T00:47:12.483Z,80.22
2019-01-20T00:52:26.502Z,80.10
2019-01-20T00:54:54.728Z,80.22
2019-01-20T00:57:22.497Z,80.07
2019-01-20T00:59:52.745Z,80.22
2019-01-20T01:02:21.653Z,80.10
2019-01-20T01:05:09.165Z,80.03
2019-01-20T01:07:37.176Z,79.92
2019-01-20T01:10:05.195Z,79.92
2019-01-20T01:12:32.828Z,79.95
2019-01-20T01:15:00.931Z,79.99
2019-01-20T01:17:28.640Z,79.80
2019-01-20T01:19:56.321Z,80.03
2019-01-20T01:22:43.103Z,80.05
2019-01-20T01:25:10.741Z,80.05
2019-01-20T01:27:38.507Z,80.17
2019-01-20T01:30:25.043Z,80.07
2019-01-20T01:32:52.668Z,80.07
2019-01-20T01:35:20.370Z,80.05
2019-01-20T01:37:48.362Z,80.05
2019-01-20T01:40:16.101Z,80.25
2019-01-20T01:43:03.521Z,80.25
2019-01-20T01:45:31.211Z,80.16
2019-01-20T01:47:58.845Z,80.13
2019-01-20T01:50:26.941Z,80.01
2019-01-20T01:53:13.431Z,79.97
2019-01-20T01:55:41.127Z,79.99
2019-01-20T01:58:09.111Z,79.89
2019-01-20T02:00:36.810Z,79.82
2019-01-20T02:03:04.453Z,79.98
2019-01-20T02:05:51.245Z,79.75
2019-01-20T02:08:18.876Z,79.75
2019-01-20T02:10:47.121Z,79.81
2019-01-20T02:13:15.118Z,79.81
2019-01-20T02:16:01.655Z,79.72
2019-01-20T02:18:29.308Z,79.95
2019-01-20T02:20:57.083Z,79.96
2019-01-20T02:23:25.023Z,79.97
2019-01-20T02:25:52.773Z,80.12
2019-01-20T02:28:20.457Z,80.12
2019-01-20T02:31:06.941Z,80.22
2019-01-20T02:33:34.711Z,80.17
2019-01-20T02:36:02.380Z,80.29
2019-01-20T02:38:30.093Z,80.40
2019-01-20T02:40:59.598Z,80.19
2019-01-20T02:43:27.310Z,80.19
2019-01-20T02:46:14.030Z,80.40
2019-01-20T02:48:41.856Z,80.29
2019-01-20T02:54:00.119Z,80.41
2019-01-20T02:56:46.570Z,80.46
2019-01-20T02:59:14.359Z,80.57
2019-01-20T03:01:42.107Z,80.69
2019-01-20T03:04:10.188Z,80.69
2019-01-20T03:06:38.209Z,80.49
2019-01-20T03:11:40.710Z,80.44
2019-01-20T03:14:27.210Z,80.48
2019-01-20T03:16:54.900Z,80.48
2019-01-20T03:19:22.690Z,80.56
2019-01-20T03:24:42.067Z,80.99
2019-01-20T03:27:10.082Z,80.48
2019-01-20T03:29:38.284Z,80.52
2019-01-20T03:32:05.931Z,80.63
2019-01-20T03:34:33.721Z,80.64
2019-01-20T03:37:01.873Z,80.65
2019-01-20T03:39:48.365Z,80.69
2019-01-20T03:42:34.882Z,80.62
2019-01-20T03:45:02.532Z,80.60
2019-01-20T03:47:30.605Z,80.60
2019-01-20T03:50:17.519Z,80.55
2019-01-20T03:53:04.027Z,80.57
2019-01-20T03:55:31.728Z,80.57
2019-01-20T03:57:59.414Z,80.58
2019-01-20T04:00:27.625Z,80.58
2019-01-20T04:03:14.152Z,80.46
2019-01-20T04:05:44.324Z,80.29
2019-01-20T04:08:12.531Z,80.29
2019-01-20T04:10:40.166Z,80.39
2019-01-20T04:13:26.960Z,80.58
2019-01-20T04:15:54.600Z,80.46
2019-01-20T04:18:22.310Z,80.58
2019-01-20T04:20:49.947Z,80.58
2019-01-20T04:23:36.433Z,80.69
2019-01-20T04:26:04.099Z,80.69
2019-01-20T04:28:31.799Z,80.70
2019-01-20T04:31:18.240Z,80.83
2019-01-20T04:34:05.742Z,80.78
2019-01-20T04:36:33.429Z,80.74
2019-01-20T04:39:01.588Z,80.80
2019-01-20T04:41:48.469Z,80.88
2019-01-20T04:44:35.236Z,80.74
2019-01-20T04:50:08.481Z,80.86
2019-01-20T04:52:36.147Z,80.86
2019-01-20T04:55:06.417Z,80.86
2019-01-20T04:57:34.323Z,80.93
2019-01-20T05:00:02.436Z,80.97
2019-01-20T05:02:30.285Z,81.02
2019-01-20T05:04:57.979Z,81.02
2019-01-20T05:10:12.835Z,81.12
2019-01-20T05:12:40.469Z,81.12
2019-01-20T05:15:08.946Z,80.63
2019-01-20T05:17:36.592Z,80.87
2019-01-20T05:20:04.315Z,80.87
2019-01-20T05:22:32.457Z,80.91
2019-01-20T05:25:00.170Z,81.01
2019-01-20T05:27:28.196Z,80.88
2019-01-20T05:29:56.417Z,80.88
2019-01-20T05:32:42.941Z,80.81
2019-01-20T05:35:29.461Z,80.82
2019-01-20T05:38:15.953Z,80.77
2019-01-20T05:40:43.665Z,80.78
2019-01-20T05:43:11.287Z,80.81
2019-01-20T05:45:57.825Z,80.87
2019-01-20T05:48:25.534Z,80.95
2019-01-20T05:50:53.236Z,80.94
2019-01-20T05:53:40.152Z,80.94
2019-01-20T05:56:07.857Z,80.67
2019-01-20T05:58:35.920Z,80.72
2019-01-20T06:06:30.374Z,80.62
2019-01-20T06:08:58.951Z,80.52
2019-01-20T06:11:26.712Z,80.52
2019-01-20T06:13:57.005Z,80.72
2019-01-20T06:16:25.028Z,80.81
2019-01-20T06:18:52.778Z,80.89
2019-01-20T06:21:20.442Z,80.76
2019-01-20T06:23:48.141Z,80.76
2019-01-20T06:26:16.263Z,80.88
2019-01-20T06:28:43.957Z,80.83
2019-01-20T06:31:11.663Z,80.89
2019-01-20T06:33:58.475Z,80.63
2019-01-20T06:36:26.161Z,80.77
2019-01-20T06:39:12.909Z,80.89
2019-01-20T06:41:40.620Z,80.77
2019-01-20T06:44:08.327Z,80.99
2019-01-20T06:46:36.081Z,81.03
2019-01-20T06:49:04.204Z,81.03
2019-01-20T06:51:31.912Z,81.01
2019-01-20T06:53:59.537Z,81.05
2019-01-20T06:56:27.623Z,81.02
2019-01-20T06:58:55.267Z,81.02
2019-01-20T07:01:42.077Z,80.78
2019-01-20T07:04:09.786Z,80.78
2019-01-20T07:06:37.481Z,80.85
2019-01-20T07:09:05.362Z,80.78
2019-01-20T07:11:51.802Z,80.79
2019-01-20T07:14:19.884Z,80.81
2019-01-20T07:16:47.732Z,80.81
2019-01-20T07:21:50.035Z,80.89
2019-01-20T07:24:17.786Z,80.83
2019-01-20T07:26:45.763Z,80.83
2019-01-20T07:29:13.918Z,81.11
2019-01-20T07:31:41.637Z,80.85
2019-01-20T07:34:09.318Z,80.91
2019-01-20T07:36:37.080Z,80.87
2019-01-20T07:39:05.247Z,80.87
2019-01-20T07:41:37.958Z,80.82
2019-01-20T07:44:07.986Z,80.83
2019-01-20T07:46:59.201Z,80.85
2019-01-20T07:49:42.602Z,80.85
2019-01-20T07:52:10.299Z,80.78
2019-01-20T07:54:57.209Z,80.72
2019-01-20T07:57:25.301Z,80.72
2019-01-20T07:59:52.977Z,80.58
2019-01-20T08:02:21.087Z,80.57
2019-01-20T08:04:48.831Z,80.57
2019-01-20T08:07:16.548Z,80.57
2019-01-20T08:09:44.268Z,80.39
2019-01-20T08:12:12.287Z,80.39
2019-01-20T08:14:59.261Z,80.25
2019-01-20T08:17:27.063Z,80.25
2019-01-20T08:19:55.422Z,80.24
2019-01-20T08:22:23.113Z,79.92
2019-01-20T08:24:50.751Z,79.92
2019-01-20T08:27:19.773Z,79.71
2019-01-20T08:29:49.743Z,79.71
2019-01-20T08:32:18.437Z,79.51
2019-01-20T08:34:46.238Z,79.51
2019-01-20T08:37:14.359Z,78.81
2019-01-20T08:39:44.454Z,78.81
2019-01-20T08:44:45.029Z,78.55
2019-01-20T08:47:31.452Z,78.55
2019-01-20T08:49:59.146Z,78.33
2019-01-20T08:52:27.177Z,76.98
2019-01-20T08:54:54.819Z,76.98
2019-01-20T08:57:22.465Z,76.53
2019-01-20T08:59:53.640Z,76.43
2019-01-20T09:02:21.395Z,76.60
2019-01-20T09:04:49.374Z,76.60
2019-01-20T09:07:17.345Z,76.89
2019-01-20T09:09:45.052Z,76.89
2019-01-20T09:12:12.710Z,77.22
2019-01-20T09:14:59.263Z,77.51
2019-01-20T09:17:26.924Z,77.51
2019-01-20T09:20:13.462Z,77.24
2019-01-20T09:22:53.488Z,77.15
2019-01-20T09:25:10.471Z,77.41
2019-01-20T09:27:41.419Z,77.23
2019-01-20T09:30:09.082Z,77.23
2019-01-20T09:32:36.736Z,77.12
2019-01-20T09:35:07.285Z,77.05
2019-01-20T09:37:53.855Z,77.01
2019-01-20T09:40:40.338Z,77.06
2019-01-20T09:43:08.042Z,77.07
2019-01-20T09:45:54.580Z,76.81
2019-01-20T09:48:22.218Z,76.51
2019-01-20T09:50:49.911Z,76.38
2019-01-20T09:53:36.393Z,76.38
2019-01-20T09:56:22.940Z,75.73
2019-01-20T09:58:50.834Z,75.86
2019-01-20T10:01:18.542Z,75.86
2019-01-20T10:03:46.605Z,75.76
2019-01-20T10:06:14.698Z,75.10
2019-01-20T10:08:45.449Z,74.38
2019-01-20T10:11:31.901Z,73.04
2019-01-20T10:14:02.236Z,73.04
2019-01-20T10:16:49.023Z,67.47
2019-01-20T10:19:16.735Z,67.47
2019-01-20T10:21:48.444Z,64.45
2019-01-20T10:24:16.081Z,61.46
2019-01-20T10:26:43.812Z,61.46
2019-01-20T10:29:13.658Z,60.62
2019-01-20T10:37:11.035Z,58.55
2019-01-20T10:39:38.698Z,58.08
2019-01-20T10:42:08.308Z,57.90
2019-01-20T10:47:22.594Z,57.79
2019-01-20T10:49:50.220Z,57.75
2019-01-20T10:55:04.553Z,57.03
2019-01-20T10:57:32.322Z,56.66
2019-01-20T11:00:00.087Z,56.33
2019-01-20T11:05:06.227Z,56.27
2019-01-20T11:07:33.272Z,56.31
2019-01-20T11:10:01.266Z,56.02
2019-01-20T11:12:31.351Z,56.54
2019-01-20T11:14:59.322Z,56.59
2019-01-20T11:17:33.333Z,56.59
2019-01-20T11:20:01.408Z,56.25
2019-01-20T11:22:29.197Z,55.75
2019-01-20T11:25:00.539Z,55.31
2019-01-20T11:27:47.045Z,54.29
2019-01-20T11:35:45.231Z,54.74
2019-01-20T11:38:12.958Z,54.52
2019-01-20T11:40:40.628Z,54.29
2019-01-20T11:43:08.671Z,54.35
2019-01-20T11:45:57.841Z,54.92
2019-01-20T11:48:25.813Z,55.47
2019-01-20T11:50:55.317Z,55.47
2019-01-20T11:53:24.174Z,56.42
2019-01-20T11:56:15.896Z,56.42
2019-01-20T11:58:46.221Z,58.16
2019-01-20T12:01:14.262Z,58.16
2019-01-20T12:03:45.582Z,58.87
2019-01-20T12:06:14.903Z,61.28
2019-01-20T12:08:43.108Z,61.51
2019-01-20T12:11:24.117Z,61.51
2019-01-20T12:13:40.926Z,62.01
2019-01-20T12:16:09.012Z,63.80
2019-01-20T12:18:36.692Z,63.80
2019-01-20T12:21:04.662Z,63.69
2019-01-20T12:23:51.215Z,64.47
2019-01-20T12:26:19.193Z,65.41
2019-01-20T12:28:47.441Z,65.34
2019-01-20T12:31:15.562Z,65.45
2019-01-20T12:33:43.217Z,65.25
2019-01-20T12:36:29.755Z,65.26
2019-01-20T12:38:57.714Z,65.22
2019-01-20T12:41:25.411Z,65.22
2019-01-20T12:46:58.249Z,65.96
2019-01-20T12:49:27.924Z,65.96
2019-01-20T12:51:55.962Z,66.49
2019-01-20T12:54:25.896Z,66.07
2019-01-20T12:56:53.571Z,66.07
2019-01-20T12:59:21.702Z,66.63
2019-01-20T13:01:49.766Z,67.37
2019-01-20T13:04:17.533Z,67.37
2019-01-20T13:06:49.896Z,67.79
2019-01-20T13:09:17.588Z,68.19
2019-01-20T13:11:46.150Z,68.73
2019-01-20T13:14:38.820Z,68.75
2019-01-20T13:17:02.136Z,68.97
2019-01-20T13:19:30.202Z,69.12
2019-01-20T13:21:57.883Z,68.67
2019-01-20T13:24:29.780Z,68.04
2019-01-20T13:26:59.871Z,67.95
2019-01-20T13:29:35.294Z,67.95
2019-01-20T13:32:03.320Z,67.61
2019-01-20T13:34:31.006Z,66.72
2019-01-20T13:36:58.755Z,67.16
2019-01-20T13:39:26.875Z,67.20
2019-01-20T13:41:54.527Z,67.20
2019-01-20T13:44:46.191Z,67.00
2019-01-20T13:47:10.720Z,67.00
2019-01-20T13:49:39.537Z,67.88
2019-01-20T13:52:10.198Z,67.88
2019-01-20T13:54:41.469Z,68.00
2019-01-20T13:57:27.960Z,68.23
2019-01-20T13:59:55.638Z,68.06
2019-01-20T14:02:23.338Z,68.70
2019-01-20T14:04:55.722Z,68.70
2019-01-20T14:07:23.503Z,68.30
2019-01-20T14:09:51.300Z,67.37
2019-01-20T14:12:19.379Z,67.61
2019-01-20T14:14:53.662Z,67.11
2019-01-20T14:17:16.456Z,67.11
2019-01-20T14:19:46.747Z,66.46
2019-01-20T14:22:18.074Z,66.46
2019-01-20T14:24:45.849Z,66.07
2019-01-20T14:27:32.312Z,66.00
2019-01-20T14:32:39.171Z,66.23
2019-01-20T14:35:06.903Z,65.93
2019-01-20T14:37:34.587Z,66.49
2019-01-20T14:40:02.713Z,66.50
2019-01-20T14:42:30.404Z,66.39
2019-01-20T14:45:01.219Z,65.64
2019-01-20T14:47:33.200Z,65.64
2019-01-20T14:50:00.917Z,65.40
2019-01-20T14:52:28.619Z,65.54
2019-01-20T14:54:56.639Z,65.54
2019-01-20T14:57:24.406Z,65.30
2019-01-20T14:59:52.215Z,64.53
2019-01-20T15:02:23.175Z,64.69
2019-01-20T15:04:51.024Z,65.29
2019-01-20T15:07:18.639Z,66.01
2019-01-20T15:09:49.271Z,66.56
2019-01-20T15:15:08.958Z,68.15
2019-01-20T15:17:35.755Z,68.68
2019-01-20T15:20:03.469Z,70.27
2019-01-20T15:22:33.175Z,70.71
2019-01-20T15:25:00.817Z,70.71
2019-01-20T15:27:30.286Z,71.05
2019-01-20T15:29:58.324Z,71.51
2019-01-20T15:32:26.040Z,71.57
2019-01-20T15:34:53.693Z,72.44
2019-01-20T15:37:24.450Z,72.44
2019-01-20T15:39:54.158Z,72.87
2019-01-20T15:42:22.144Z,72.87
2019-01-20T15:44:53.031Z,73.00
2019-01-20T15:47:20.709Z,73.20
2019-01-20T15:49:48.452Z,73.26
2019-01-20T15:52:16.534Z,73.26
2019-01-20T15:54:47.300Z,73.66
2019-01-20T15:57:16.599Z,73.83
2019-01-20T15:59:44.620Z,73.98
2019-01-20T16:02:31.546Z,74.13
2019-01-20T16:05:03.389Z,74.12
2019-01-20T16:07:31.051Z,74.12
2019-01-20T16:09:58.755Z,74.37
2019-01-20T16:12:45.346Z,74.66
2019-01-20T16:15:13.014Z,74.51
2019-01-20T16:17:40.725Z,75.21
2019-01-20T16:20:08.750Z,74.72
2019-01-20T16:22:37.967Z,74.90
2019-01-20T16:25:05.814Z,75.02
2019-01-20T16:27:37.229Z,75.05
2019-01-20T16:30:03.492Z,74.88
2019-01-20T16:32:31.422Z,75.14
2019-01-20T16:34:59.633Z,75.37
2019-01-20T16:37:27.420Z,75.37
2019-01-20T16:39:58.182Z,75.24
2019-01-20T16:42:26.352Z,75.17
2019-01-20T16:44:56.495Z,75.18
2019-01-20T16:47:26.043Z,75.18
2019-01-20T16:50:15.102Z,75.15
2019-01-20T16:53:03.907Z,75.23
2019-01-20T16:55:31.901Z,75.23
2019-01-20T16:57:59.994Z,75.46
2019-01-20T17:00:29.964Z,75.58
2019-01-20T17:02:58.259Z,75.37
2019-01-20T17:05:27.076Z,75.37
2019-01-20T17:07:55.298Z,75.94
2019-01-20T17:10:23.437Z,75.65
2019-01-20T17:12:51.104Z,75.59
2019-01-20T17:15:18.785Z,75.64
2019-01-20T17:17:48.712Z,75.64
2019-01-20T17:20:18.115Z,75.86
2019-01-20T17:22:46.275Z,76.04
2019-01-20T17:25:14.314Z,76.04
2019-01-20T17:27:46.463Z,75.60
2019-01-20T17:30:14.263Z,75.60
2019-01-20T17:32:44.010Z,75.74
2019-01-20T17:35:14.150Z,75.70
2019-01-20T17:37:41.881Z,75.70
2019-01-20T17:40:28.338Z,75.81
2019-01-20T17:42:56.414Z,75.49
2019-01-20T17:45:24.637Z,75.49
2019-01-20T17:47:52.345Z,75.87
2019-01-20T17:50:27.184Z,75.87
2019-01-20T17:52:55.298Z,76.03
2019-01-20T17:55:26.313Z,75.93
2019-01-20T17:57:53.978Z,75.93
2019-01-20T18:00:22.432Z,75.92
2019-01-20T18:02:53.271Z,75.56
2019-01-20T18:05:21.084Z,75.84
2019-01-20T18:08:04.278Z,75.58
2019-01-20T18:10:21.784Z,75.58
2019-01-20T18:12:49.438Z,76.00
2019-01-20T18:15:20.123Z,76.00
2019-01-20T18:17:47.837Z,76.09
2019-01-20T18:20:15.594Z,76.09
2019-01-20T18:22:43.741Z,76.00
2019-01-20T18:28:18.295Z,76.24
2019-01-20T18:30:45.973Z,76.22
2019-01-20T18:33:13.907Z,76.31
2019-01-20T18:35:43.958Z,76.66
2019-01-20T18:38:11.600Z,76.66
2019-01-20T18:40:43.848Z,76.49
2019-01-20T18:43:11.683Z,76.31
2019-01-20T18:45:41.371Z,76.31
2019-01-20T18:50:46.368Z,76.70
2019-01-20T18:53:14.195Z,76.88
2019-01-20T18:55:42.724Z,76.88
2019-01-20T18:58:10.489Z,76.82
2019-01-20T19:00:38.298Z,76.79
2019-01-20T19:03:08.697Z,77.09
2019-01-20T19:05:36.528Z,77.00
2019-01-20T19:08:04.576Z,77.09
2019-01-20T19:10:32.672Z,77.06
2019-01-20T19:13:00.370Z,77.06
2019-01-20T19:15:29.046Z,76.94
2019-01-20T19:17:57.348Z,76.78
2019-01-20T19:20:24.980Z,76.78
2019-01-20T19:22:52.787Z,76.94
2019-01-20T19:25:39.309Z,76.94
2019-01-20T19:28:06.974Z,76.99
2019-01-20T19:30:36.869Z,76.99
2019-01-20T19:33:07.822Z,77.35
2019-01-20T19:35:35.930Z,77.14
2019-01-20T19:38:03.593Z,77.12
2019-01-20T19:40:34.003Z,77.12
2019-01-20T19:45:36.317Z,77.16
2019-01-20T19:48:04.423Z,77.16
2019-01-20T19:50:32.155Z,77.16
2019-01-20T19:53:02.784Z,77.28
2019-01-20T19:55:50.771Z,77.28
2019-01-20T19:58:37.222Z,77.30
2019-01-20T20:01:05.473Z,77.44
2019-01-20T20:03:34.719Z,77.50
2019-01-20T20:06:09.179Z,77.51
2019-01-20T20:08:35.315Z,77.51
2019-01-20T20:11:05.248Z,77.68
2019-01-20T20:14:04.315Z,77.81
2019-01-20T20:16:23.499Z,77.92
2019-01-20T20:18:51.031Z,77.92
2019-01-20T20:21:18.972Z,77.87
2019-01-20T20:23:46.586Z,77.87
2019-01-20T20:26:17.758Z,77.87
2019-01-20T20:28:45.602Z,78.01
2019-01-20T20:31:16.333Z,78.11
2019-01-20T20:33:44.476Z,78.11
2019-01-20T20:36:12.217Z,78.00
2019-01-20T20:38:42.288Z,78.00
2019-01-20T20:41:25.326Z,78.09
2019-01-20T20:43:43.107Z,78.04
2019-01-20T20:46:10.829Z,78.04
2019-01-20T20:48:38.918Z,77.99
2019-01-20T20:51:06.643Z,77.99
2019-01-20T20:53:34.339Z,77.98
2019-01-20T20:56:20.886Z,78.26
2019-01-20T20:58:49.350Z,78.17
2019-01-20T21:04:10.567Z,78.12
2019-01-20T21:09:15.313Z,78.22
2019-01-20T21:11:45.352Z,78.22
2019-01-20T21:14:31.827Z,78.47
2019-01-20T21:16:59.506Z,78.47
2019-01-20T21:19:46.039Z,78.49
2019-01-20T21:22:13.703Z,78.49
2019-01-20T21:24:58.460Z,78.53
2019-01-20T21:27:35.322Z,78.57
2019-01-20T21:32:53.452Z,78.48
2019-01-20T21:35:41.823Z,78.80
2019-01-20T21:38:09.612Z,78.88
2019-01-20T21:40:37.274Z,78.88
2019-01-20T21:43:06.092Z,78.62
2019-01-20T21:48:20.725Z,78.50
2019-01-20T21:50:51.620Z,78.50
2019-01-20T21:53:20.965Z,78.52
2019-01-20T21:55:49.627Z,78.34
2019-01-20T21:58:37.104Z,78.46
2019-01-20T22:01:18.029Z,78.61
2019-01-20T22:03:34.862Z,78.43
2019-01-20T22:06:02.527Z,78.43
2019-01-20T22:08:33.133Z,78.38
2019-01-20T22:11:02.047Z,78.51
2019-01-20T22:13:30.800Z,78.51
2019-01-20T22:16:03.834Z,78.41
2019-01-20T22:18:33.406Z,78.51
2019-01-20T22:21:01.171Z,78.70
2019-01-20T22:23:47.683Z,78.70
2019-01-20T22:26:15.376Z,78.45
2019-01-20T22:28:46.301Z,78.63
2019-01-20T22:31:14.302Z,78.65
2019-01-20T22:33:43.019Z,78.81
2019-01-20T22:36:10.646Z,78.47
2019-01-20T22:38:38.853Z,78.40
2019-01-20T22:41:06.622Z,78.72
2019-01-20T22:43:34.278Z,78.72
2019-01-20T22:46:02.848Z,78.64
2019-01-20T22:48:30.488Z,78.74
2019-01-20T22:51:12.322Z,78.84
2019-01-20T22:53:27.570Z,78.84
2019-01-20T22:56:14.113Z,78.78
2019-01-20T22:58:41.813Z,78.78
2019-01-20T23:01:09.880Z,79.01
2019-01-20T23:03:56.432Z,78.99
2019-01-20T23:06:24.152Z,79.23
2019-01-20T23:08:51.875Z,79.23
2019-01-20T23:11:20.100Z,78.97
2019-01-20T23:13:47.723Z,78.97
2019-01-20T23:16:15.428Z,79.21
2019-01-20T23:18:43.106Z,79.19
2019-01-20T23:21:11.234Z,79.20
2019-01-20T23:23:38.967Z,79.20
2019-01-20T23:26:07.055Z,79.20
2019-01-20T23:28:34.817Z,79.27
2019-01-20T23:31:05.949Z,79.25
2019-01-20T23:33:33.649Z,79.25
2019-01-20T23:36:01.365Z,79.23
2019-01-20T23:38:29.501Z,79.28
2019-01-20T23:40:57.161Z,79.28
2019-01-20T23:43:26.578Z,79.24
2019-01-20T23:45:54.608Z,79.16
2019-01-20T23:48:22.273Z,79.00
2019-01-20T23:50:50.349Z,79.08
2019-01-20T23:53:18.046Z,79.08
2019-01-20T23:56:04.594Z,79.36
2019-01-20T23:58:32.250Z,79.36
